sensor_id;sensor_type;location;lat;lon;timestamp;temperature;humidity
4324;DHT22;2175;51.018;6.994;2023-03-23T00:00:11;13.20;99.90
4324;DHT22;2175;51.018;6.994;2023-03-23T00:02:37;13.20;99.90
4324;DHT22;2175;51.018;6.994;2023-03-23T00:05:04;13.20;99.90
4324;DHT22;2175;51.018;6.994;2023-03-23T00:07:32;13.30;99.90
4324;DHT22;2175;51.018;6.994;2023-03-23T00:09:58;13.30;99.90
4324;DHT22;2175;51.018;6.994;2023-03-23T00:12:29;13.20;99.90
4324;DHT22;2175;51.018;6.994;2023-03-23T00:15:06;13.20;99.90
4324;DHT22;2175;51.018;6.994;2023-03-23T00:17:32;13.20;99.90
4324;DHT22;2175;51.018;6.994;2023-03-23T00:19:58;13.20;99.90
4324;DHT22;2175;51.018;6.994;2023-03-23T00:22:27;13.20;99.90
4324;DHT22;2175;51.018;6.994;2023-03-23T00:24:54;13.20;99.90
4324;DHT22;2175;51.018;6.994;2023-03-23T00:27:20;13.30;99.90
4324;DHT22;2175;51.018;6.994;2023-03-23T00:29:48;13.20;99.90
4324;DHT22;2175;51.018;6.994;2023-03-23T00:32:19;13.30;99.90
4324;DHT22;2175;51.018;6.994;2023-03-23T00:34:46;13.30;99.90
4324;DHT22;2175;51.018;6.994;2023-03-23T00:37:13;13.20;99.90
4324;DHT22;2175;51.018;6.994;2023-03-23T00:39:42;13.20;99.90
4324;DHT22;2175;51.018;6.994;2023-03-23T00:42:11;13.30;99.90
4324;DHT22;2175;51.018;6.994;2023-03-23T00:44:37;13.30;99.90
4324;DHT22;2175;51.018;6.994;2023-03-23T00:47:05;13.30;99.90
4324;DHT22;2175;51.018;6.994;2023-03-23T00:49:33;13.30;99.90
4324;DHT22;2175;51.018;6.994;2023-03-23T00:52:01;13.30;99.90
4324;DHT22;2175;51.018;6.994;2023-03-23T00:54:27;13.30;99.90
4324;DHT22;2175;51.018;6.994;2023-03-23T00:56:53;13.30;99.90
4324;DHT22;2175;51.018;6.994;2023-03-23T00:59:20;13.30;99.90
4324;DHT22;2175;51.018;6.994;2023-03-23T01:01:46;13.30;99.90
4324;DHT22;2175;51.018;6.994;2023-03-23T01:04:12;13.30;99.90
4324;DHT22;2175;51.018;6.994;2023-03-23T01:06:40;13.20;99.90
4324;DHT22;2175;51.018;6.994;2023-03-23T01:09:11;13.20;99.90
4324;DHT22;2175;51.018;6.994;2023-03-23T01:11:40;13.20;99.90
4324;DHT22;2175;51.018;6.994;2023-03-23T01:14:06;13.20;99.90
4324;DHT22;2175;51.018;6.994;2023-03-23T01:16:31;13.20;99.90
4324;DHT22;2175;51.018;6.994;2023-03-23T01:18:57;13.20;99.90
4324;DHT22;2175;51.018;6.994;2023-03-23T01:21:22;13.20;99.90
4324;DHT22;2175;51.018;6.994;2023-03-23T01:23:50;13.20;99.90
4324;DHT22;2175;51.018;6.994;2023-03-23T01:26:18;13.10;99.90
4324;DHT22;2175;51.018;6.994;2023-03-23T01:28:44;13.20;99.90
4324;DHT22;2175;51.018;6.994;2023-03-23T01:31:13;13.20;99.90
4324;DHT22;2175;51.018;6.994;2023-03-23T01:33:40;13.30;99.90
4324;DHT22;2175;51.018;6.994;2023-03-23T01:36:08;13.20;99.90
4324;DHT22;2175;51.018;6.994;2023-03-23T01:38:34;13.10;99.90
4324;DHT22;2175;51.018;6.994;2023-03-23T01:41:00;13.20;99.90
4324;DHT22;2175;51.018;6.994;2023-03-23T01:43:26;13.10;99.90
4324;DHT22;2175;51.018;6.994;2023-03-23T01:45:52;13.10;99.90
4324;DHT22;2175;51.018;6.994;2023-03-23T01:48:31;13.10;99.90
4324;DHT22;2175;51.018;6.994;2023-03-23T01:51:11;13.00;99.90
4324;DHT22;2175;51.018;6.994;2023-03-23T01:53:57;12.80;99.90
4324;DHT22;2175;51.018;6.994;2023-03-23T01:56:27;12.70;99.90
4324;DHT22;2175;51.018;6.994;2023-03-23T01:58:55;12.60;99.90
4324;DHT22;2175;51.018;6.994;2023-03-23T02:01:22;12.50;99.90
4324;DHT22;2175;51.018;6.994;2023-03-23T02:03:52;12.50;99.90
4324;DHT22;2175;51.018;6.994;2023-03-23T02:06:19;12.40;99.90
4324;DHT22;2175;51.018;6.994;2023-03-23T02:08:48;12.30;99.90
4324;DHT22;2175;51.018;6.994;2023-03-23T02:11:17;12.40;99.90
4324;DHT22;2175;51.018;6.994;2023-03-23T02:13:43;12.30;99.90
4324;DHT22;2175;51.018;6.994;2023-03-23T02:25:12;12.30;99.90
4324;DHT22;2175;51.018;6.994;2023-03-23T02:30:43;12.20;99.90
4324;DHT22;2175;51.018;6.994;2023-03-23T02:33:36;12.20;99.90
4324;DHT22;2175;51.018;6.994;2023-03-23T02:36:33;12.30;99.90
4324;DHT22;2175;51.018;6.994;2023-03-23T02:42:04;12.30;99.90
4324;DHT22;2175;51.018;6.994;2023-03-23T02:44:31;12.30;99.90
4324;DHT22;2175;51.018;6.994;2023-03-23T02:46:59;12.30;99.90
4324;DHT22;2175;51.018;6.994;2023-03-23T02:49:28;12.30;99.90
4324;DHT22;2175;51.018;6.994;2023-03-23T02:51:58;12.20;99.90
4324;DHT22;2175;51.018;6.994;2023-03-23T02:54:24;12.30;99.90
4324;DHT22;2175;51.018;6.994;2023-03-23T02:56:52;12.30;99.90
4324;DHT22;2175;51.018;6.994;2023-03-23T02:59:20;12.20;99.90
4324;DHT22;2175;51.018;6.994;2023-03-23T03:01:51;12.10;99.90
4324;DHT22;2175;51.018;6.994;2023-03-23T03:04:22;12.20;99.90
4324;DHT22;2175;51.018;6.994;2023-03-23T03:06:54;12.20;99.90
4324;DHT22;2175;51.018;6.994;2023-03-23T03:09:51;12.20;99.90
4324;DHT22;2175;51.018;6.994;2023-03-23T03:15:11;12.20;99.90
4324;DHT22;2175;51.018;6.994;2023-03-23T03:17:46;12.20;99.90
4324;DHT22;2175;51.018;6.994;2023-03-23T03:20:14;12.30;99.90
4324;DHT22;2175;51.018;6.994;2023-03-23T03:22:43;12.30;99.90
4324;DHT22;2175;51.018;6.994;2023-03-23T03:25:11;12.30;99.90
4324;DHT22;2175;51.018;6.994;2023-03-23T03:27:39;12.30;99.90
4324;DHT22;2175;51.018;6.994;2023-03-23T03:30:09;12.30;99.90
4324;DHT22;2175;51.018;6.994;2023-03-23T03:32:43;12.30;99.90
4324;DHT22;2175;51.018;6.994;2023-03-23T03:35:09;12.30;99.90
4324;DHT22;2175;51.018;6.994;2023-03-23T03:37:37;12.30;99.90
4324;DHT22;2175;51.018;6.994;2023-03-23T03:40:09;12.30;99.90
4324;DHT22;2175;51.018;6.994;2023-03-23T03:42:41;12.30;99.90
4324;DHT22;2175;51.018;6.994;2023-03-23T03:45:09;12.30;99.90
4324;DHT22;2175;51.018;6.994;2023-03-23T03:47:35;12.30;99.90
4324;DHT22;2175;51.018;6.994;2023-03-23T03:50:01;12.30;99.90
4324;DHT22;2175;51.018;6.994;2023-03-23T03:52:27;12.30;99.90
4324;DHT22;2175;51.018;6.994;2023-03-23T03:54:53;12.30;99.90
4324;DHT22;2175;51.018;6.994;2023-03-23T03:57:19;12.30;99.90
4324;DHT22;2175;51.018;6.994;2023-03-23T03:59:45;12.40;99.90
4324;DHT22;2175;51.018;6.994;2023-03-23T04:02:11;12.40;99.90
4324;DHT22;2175;51.018;6.994;2023-03-23T04:04:40;12.40;99.90
4324;DHT22;2175;51.018;6.994;2023-03-23T04:07:07;12.40;99.90
4324;DHT22;2175;51.018;6.994;2023-03-23T04:09:32;12.40;99.90
4324;DHT22;2175;51.018;6.994;2023-03-23T04:11:58;12.40;99.90
4324;DHT22;2175;51.018;6.994;2023-03-23T04:14:23;12.40;99.90
4324;DHT22;2175;51.018;6.994;2023-03-23T04:16:49;12.40;99.90
4324;DHT22;2175;51.018;6.994;2023-03-23T04:19:17;12.40;99.90
4324;DHT22;2175;51.018;6.994;2023-03-23T04:21:43;12.40;99.90
4324;DHT22;2175;51.018;6.994;2023-03-23T04:24:14;12.40;99.90
4324;DHT22;2175;51.018;6.994;2023-03-23T04:26:40;12.40;99.90
4324;DHT22;2175;51.018;6.994;2023-03-23T04:29:07;12.40;99.90
4324;DHT22;2175;51.018;6.994;2023-03-23T04:31:34;12.40;99.90
4324;DHT22;2175;51.018;6.994;2023-03-23T04:34:00;12.30;99.90
4324;DHT22;2175;51.018;6.994;2023-03-23T04:36:27;12.30;99.90
4324;DHT22;2175;51.018;6.994;2023-03-23T04:38:54;12.20;99.90
4324;DHT22;2175;51.018;6.994;2023-03-23T04:41:21;12.30;99.90
4324;DHT22;2175;51.018;6.994;2023-03-23T04:43:47;12.10;99.90
4324;DHT22;2175;51.018;6.994;2023-03-23T04:46:18;12.20;99.90
4324;DHT22;2175;51.018;6.994;2023-03-23T04:48:45;12.10;99.90
4324;DHT22;2175;51.018;6.994;2023-03-23T04:51:11;12.10;99.90
4324;DHT22;2175;51.018;6.994;2023-03-23T04:53:39;12.10;99.90
4324;DHT22;2175;51.018;6.994;2023-03-23T04:56:06;12.10;99.90
4324;DHT22;2175;51.018;6.994;2023-03-23T04:58:32;12.10;99.90
4324;DHT22;2175;51.018;6.994;2023-03-23T05:01:00;12.20;99.90
4324;DHT22;2175;51.018;6.994;2023-03-23T05:03:25;12.10;99.90
4324;DHT22;2175;51.018;6.994;2023-03-23T05:05:52;12.20;99.90
4324;DHT22;2175;51.018;6.994;2023-03-23T05:08:22;12.20;99.90
4324;DHT22;2175;51.018;6.994;2023-03-23T05:10:55;12.20;99.90
4324;DHT22;2175;51.018;6.994;2023-03-23T05:13:21;12.20;99.90
4324;DHT22;2175;51.018;6.994;2023-03-23T05:15:47;12.20;99.90
4324;DHT22;2175;51.018;6.994;2023-03-23T05:18:13;12.20;99.90
4324;DHT22;2175;51.018;6.994;2023-03-23T05:20:38;12.20;99.90
4324;DHT22;2175;51.018;6.994;2023-03-23T05:23:04;12.20;99.90
4324;DHT22;2175;51.018;6.994;2023-03-23T05:25:30;12.20;99.90
4324;DHT22;2175;51.018;6.994;2023-03-23T05:27:58;12.20;99.90
4324;DHT22;2175;51.018;6.994;2023-03-23T05:30:24;12.20;99.90
4324;DHT22;2175;51.018;6.994;2023-03-23T05:32:50;12.20;99.90
4324;DHT22;2175;51.018;6.994;2023-03-23T05:35:17;12.20;99.90
4324;DHT22;2175;51.018;6.994;2023-03-23T05:37:43;12.20;99.90
4324;DHT22;2175;51.018;6.994;2023-03-23T05:40:10;12.20;99.90
4324;DHT22;2175;51.018;6.994;2023-03-23T05:42:38;12.20;99.90
4324;DHT22;2175;51.018;6.994;2023-03-23T05:45:06;12.20;99.90
4324;DHT22;2175;51.018;6.994;2023-03-23T05:47:32;12.20;99.90
4324;DHT22;2175;51.018;6.994;2023-03-23T05:49:58;12.20;99.90
4324;DHT22;2175;51.018;6.994;2023-03-23T05:52:24;12.20;99.90
4324;DHT22;2175;51.018;6.994;2023-03-23T05:54:51;12.20;99.90
4324;DHT22;2175;51.018;6.994;2023-03-23T05:57:17;12.20;99.90
4324;DHT22;2175;51.018;6.994;2023-03-23T05:59:44;12.20;99.90
4324;DHT22;2175;51.018;6.994;2023-03-23T06:02:11;12.30;99.90
4324;DHT22;2175;51.018;6.994;2023-03-23T06:04:36;12.30;99.90
4324;DHT22;2175;51.018;6.994;2023-03-23T06:07:03;12.30;99.90
4324;DHT22;2175;51.018;6.994;2023-03-23T06:09:29;12.30;99.90
4324;DHT22;2175;51.018;6.994;2023-03-23T06:11:56;12.30;99.90
4324;DHT22;2175;51.018;6.994;2023-03-23T06:14:21;12.30;99.90
4324;DHT22;2175;51.018;6.994;2023-03-23T06:16:47;12.30;99.90
4324;DHT22;2175;51.018;6.994;2023-03-23T06:19:13;12.30;99.90
4324;DHT22;2175;51.018;6.994;2023-03-23T06:21:41;12.40;99.90
4324;DHT22;2175;51.018;6.994;2023-03-23T06:24:07;12.40;99.90
4324;DHT22;2175;51.018;6.994;2023-03-23T06:26:35;12.50;99.90
4324;DHT22;2175;51.018;6.994;2023-03-23T06:29:03;12.50;99.90
4324;DHT22;2175;51.018;6.994;2023-03-23T06:31:40;12.50;99.90
4324;DHT22;2175;51.018;6.994;2023-03-23T06:34:07;12.60;99.90
4324;DHT22;2175;51.018;6.994;2023-03-23T06:36:34;12.60;99.90
4324;DHT22;2175;51.018;6.994;2023-03-23T06:39:00;12.70;99.90
4324;DHT22;2175;51.018;6.994;2023-03-23T06:41:26;12.70;99.90
4324;DHT22;2175;51.018;6.994;2023-03-23T06:43:52;12.70;99.90
4324;DHT22;2175;51.018;6.994;2023-03-23T06:46:17;12.70;99.90
4324;DHT22;2175;51.018;6.994;2023-03-23T06:48:43;12.70;99.90
4324;DHT22;2175;51.018;6.994;2023-03-23T06:51:09;12.80;99.90
4324;DHT22;2175;51.018;6.994;2023-03-23T06:53:34;12.90;99.90
4324;DHT22;2175;51.018;6.994;2023-03-23T06:56:00;13.00;99.90
4324;DHT22;2175;51.018;6.994;2023-03-23T06:58:26;13.10;99.90
4324;DHT22;2175;51.018;6.994;2023-03-23T07:00:58;13.10;99.90
4324;DHT22;2175;51.018;6.994;2023-03-23T07:03:24;13.10;99.90
4324;DHT22;2175;51.018;6.994;2023-03-23T07:05:51;13.00;99.90
4324;DHT22;2175;51.018;6.994;2023-03-23T07:08:17;13.10;99.90
4324;DHT22;2175;51.018;6.994;2023-03-23T07:10:42;13.00;99.90
4324;DHT22;2175;51.018;6.994;2023-03-23T07:13:09;13.00;99.90
4324;DHT22;2175;51.018;6.994;2023-03-23T07:15:36;13.00;99.90
4324;DHT22;2175;51.018;6.994;2023-03-23T07:18:03;13.00;99.90
4324;DHT22;2175;51.018;6.994;2023-03-23T07:20:28;13.00;99.90
4324;DHT22;2175;51.018;6.994;2023-03-23T07:22:54;13.10;99.90
4324;DHT22;2175;51.018;6.994;2023-03-23T07:25:20;13.00;99.90
4324;DHT22;2175;51.018;6.994;2023-03-23T07:27:46;13.10;99.90
4324;DHT22;2175;51.018;6.994;2023-03-23T07:30:12;13.10;99.90
4324;DHT22;2175;51.018;6.994;2023-03-23T07:32:39;13.10;99.50
4324;DHT22;2175;51.018;6.994;2023-03-23T07:35:04;13.10;99.90
4324;DHT22;2175;51.018;6.994;2023-03-23T07:37:30;13.20;96.70
4324;DHT22;2175;51.018;6.994;2023-03-23T07:39:57;13.20;99.90
4324;DHT22;2175;51.018;6.994;2023-03-23T07:42:23;13.30;99.90
4324;DHT22;2175;51.018;6.994;2023-03-23T07:44:49;13.30;96.20
4324;DHT22;2175;51.018;6.994;2023-03-23T07:47:15;13.30;98.20
4324;DHT22;2175;51.018;6.994;2023-03-23T07:49:41;13.30;99.70
4324;DHT22;2175;51.018;6.994;2023-03-23T07:52:06;13.30;94.60
4324;DHT22;2175;51.018;6.994;2023-03-23T07:54:32;13.30;96.30
4324;DHT22;2175;51.018;6.994;2023-03-23T07:56:57;13.40;99.40
4324;DHT22;2175;51.018;6.994;2023-03-23T07:59:23;13.40;93.40
4324;DHT22;2175;51.018;6.994;2023-03-23T08:01:48;13.40;94.90
4324;DHT22;2175;51.018;6.994;2023-03-23T08:04:14;13.50;86.80
4324;DHT22;2175;51.018;6.994;2023-03-23T08:06:40;13.50;80.80
4324;DHT22;2175;51.018;6.994;2023-03-23T08:09:07;13.60;69.00
4324;DHT22;2175;51.018;6.994;2023-03-23T08:11:37;13.60;81.10
4324;DHT22;2175;51.018;6.994;2023-03-23T08:14:04;13.70;91.90
4324;DHT22;2175;51.018;6.994;2023-03-23T08:16:31;13.70;73.10
4324;DHT22;2175;51.018;6.994;2023-03-23T08:18:56;13.70;81.80
4324;DHT22;2175;51.018;6.994;2023-03-23T08:21:22;13.80;60.40
4324;DHT22;2175;51.018;6.994;2023-03-23T08:23:48;13.80;51.70
4324;DHT22;2175;51.018;6.994;2023-03-23T08:26:14;13.70;66.40
4324;DHT22;2175;51.018;6.994;2023-03-23T08:28:41;13.70;58.80
4324;DHT22;2175;51.018;6.994;2023-03-23T08:31:10;13.70;57.70
4324;DHT22;2175;51.018;6.994;2023-03-23T08:33:37;13.80;54.50
4324;DHT22;2175;51.018;6.994;2023-03-23T08:36:03;13.90;49.80
4324;DHT22;2175;51.018;6.994;2023-03-23T08:38:30;13.90;61.80
4324;DHT22;2175;51.018;6.994;2023-03-23T08:41:00;13.90;43.10
4324;DHT22;2175;51.018;6.994;2023-03-23T08:43:26;14.00;69.30
4324;DHT22;2175;51.018;6.994;2023-03-23T08:45:52;14.00;41.30
4324;DHT22;2175;51.018;6.994;2023-03-23T08:48:19;14.00;30.00
4324;DHT22;2175;51.018;6.994;2023-03-23T08:50:45;14.00;42.30
4324;DHT22;2175;51.018;6.994;2023-03-23T08:53:10;14.10;33.60
4324;DHT22;2175;51.018;6.994;2023-03-23T08:55:36;14.10;15.70
4324;DHT22;2175;51.018;6.994;2023-03-23T08:58:02;14.10;43.60
4324;DHT22;2175;51.018;6.994;2023-03-23T09:00:29;14.00;62.80
4324;DHT22;2175;51.018;6.994;2023-03-23T09:02:55;13.90;48.80
4324;DHT22;2175;51.018;6.994;2023-03-23T09:05:23;13.90;29.70
4324;DHT22;2175;51.018;6.994;2023-03-23T09:07:51;13.80;28.80
4324;DHT22;2175;51.018;6.994;2023-03-23T09:10:18;13.90;41.40
4324;DHT22;2175;51.018;6.994;2023-03-23T09:12:44;13.90;21.30
4324;DHT22;2175;51.018;6.994;2023-03-23T09:15:15;13.90;21.00
4324;DHT22;2175;51.018;6.994;2023-03-23T09:17:43;13.90;27.80
4324;DHT22;2175;51.018;6.994;2023-03-23T09:20:11;13.90;27.80
4324;DHT22;2175;51.018;6.994;2023-03-23T09:22:48;13.90;28.00
4324;DHT22;2175;51.018;6.994;2023-03-23T09:25:19;13.90;31.40
4324;DHT22;2175;51.018;6.994;2023-03-23T09:27:50;13.90;40.30
4324;DHT22;2175;51.018;6.994;2023-03-23T09:30:19;14.00;48.10
4324;DHT22;2175;51.018;6.994;2023-03-23T09:32:46;14.10;35.20
4324;DHT22;2175;51.018;6.994;2023-03-23T09:35:14;14.10;27.50
4324;DHT22;2175;51.018;6.994;2023-03-23T09:37:44;14.20;18.20
4324;DHT22;2175;51.018;6.994;2023-03-23T09:40:13;14.30;22.00
4324;DHT22;2175;51.018;6.994;2023-03-23T09:48:55;14.10;14.20
4324;DHT22;2175;51.018;6.994;2023-03-23T09:54:18;14.10;20.00
4324;DHT22;2175;51.018;6.994;2023-03-23T09:56:45;14.00;8.80
4324;DHT22;2175;51.018;6.994;2023-03-23T10:04:41;14.10;1.00
4324;DHT22;2175;51.018;6.994;2023-03-23T10:07:15;14.20;1.00
4324;DHT22;2175;51.018;6.994;2023-03-23T10:09:43;14.20;1.00
4324;DHT22;2175;51.018;6.994;2023-03-23T10:23:35;14.40;7.70
4324;DHT22;2175;51.018;6.994;2023-03-23T10:28:53;14.40;1.00
4324;DHT22;2175;51.018;6.994;2023-03-23T10:31:24;14.30;1.00
4324;DHT22;2175;51.018;6.994;2023-03-23T10:33:53;14.30;1.00
4324;DHT22;2175;51.018;6.994;2023-03-23T10:36:30;14.30;1.20
4324;DHT22;2175;51.018;6.994;2023-03-23T10:39:10;14.00;48.00
4324;DHT22;2175;51.018;6.994;2023-03-23T10:41:38;13.70;52.00
4324;DHT22;2175;51.018;6.994;2023-03-23T10:44:30;13.70;81.20
4324;DHT22;2175;51.018;6.994;2023-03-23T10:47:05;13.60;96.80
4324;DHT22;2175;51.018;6.994;2023-03-23T10:49:45;13.60;89.60
4324;DHT22;2175;51.018;6.994;2023-03-23T10:54:57;13.70;99.90
4324;DHT22;2175;51.018;6.994;2023-03-23T10:57:29;13.80;95.50
4324;DHT22;2175;51.018;6.994;2023-03-23T11:02:43;13.80;99.90
4324;DHT22;2175;51.018;6.994;2023-03-23T11:05:21;13.60;99.90
4324;DHT22;2175;51.018;6.994;2023-03-23T11:07:54;13.60;99.90
4324;DHT22;2175;51.018;6.994;2023-03-23T11:10:27;13.50;99.90
4324;DHT22;2175;51.018;6.994;2023-03-23T11:12:57;13.70;99.90
4324;DHT22;2175;51.018;6.994;2023-03-23T11:15:36;13.80;99.90
4324;DHT22;2175;51.018;6.994;2023-03-23T11:18:10;13.90;99.90
4324;DHT22;2175;51.018;6.994;2023-03-23T11:20:47;13.90;99.90
4324;DHT22;2175;51.018;6.994;2023-03-23T11:23:30;13.90;99.90
4324;DHT22;2175;51.018;6.994;2023-03-23T11:26:16;13.90;99.90
4324;DHT22;2175;51.018;6.994;2023-03-23T11:31:17;14.00;99.90
4324;DHT22;2175;51.018;6.994;2023-03-23T11:33:55;14.10;99.90
4324;DHT22;2175;51.018;6.994;2023-03-23T11:36:33;14.20;92.90
4324;DHT22;2175;51.018;6.994;2023-03-23T11:38:59;14.30;96.10
4324;DHT22;2175;51.018;6.994;2023-03-23T11:41:31;14.40;93.30
4324;DHT22;2175;51.018;6.994;2023-03-23T11:43:57;14.20;94.20
4324;DHT22;2175;51.018;6.994;2023-03-23T11:46:39;14.20;95.60
4324;DHT22;2175;51.018;6.994;2023-03-23T11:49:13;14.20;98.40
4324;DHT22;2175;51.018;6.994;2023-03-23T11:51:54;14.20;95.10
4324;DHT22;2175;51.018;6.994;2023-03-23T11:54:32;14.30;93.10
4324;DHT22;2175;51.018;6.994;2023-03-23T11:56:59;14.20;93.80
4324;DHT22;2175;51.018;6.994;2023-03-23T11:59:31;14.20;98.10
4324;DHT22;2175;51.018;6.994;2023-03-23T12:13:34;13.40;99.90
4324;DHT22;2175;51.018;6.994;2023-03-23T12:19:09;13.40;99.90
4324;DHT22;2175;51.018;6.994;2023-03-23T12:24:57;13.40;99.90
4324;DHT22;2175;51.018;6.994;2023-03-23T12:27:31;13.30;99.90
4324;DHT22;2175;51.018;6.994;2023-03-23T12:35:28;13.30;99.90
4324;DHT22;2175;51.018;6.994;2023-03-23T12:43:07;13.30;99.90
4324;DHT22;2175;51.018;6.994;2023-03-23T12:48:43;13.10;99.90
4324;DHT22;2175;51.018;6.994;2023-03-23T12:51:41;13.10;99.90
4324;DHT22;2175;51.018;6.994;2023-03-23T12:56:54;13.10;99.90
4324;DHT22;2175;51.018;6.994;2023-03-23T13:02:32;13.10;99.90
4324;DHT22;2175;51.018;6.994;2023-03-23T13:05:58;13.10;99.90
4324;DHT22;2175;51.018;6.994;2023-03-23T13:08:18;13.10;99.90
4324;DHT22;2175;51.018;6.994;2023-03-23T13:10:54;13.40;99.90
4324;DHT22;2175;51.018;6.994;2023-03-23T13:13:24;13.50;99.90
4324;DHT22;2175;51.018;6.994;2023-03-23T13:16:02;13.50;99.90
4324;DHT22;2175;51.018;6.994;2023-03-23T13:24:06;13.90;99.90
4324;DHT22;2175;51.018;6.994;2023-03-23T13:26:38;13.90;99.90
4324;DHT22;2175;51.018;6.994;2023-03-23T13:29:06;14.00;99.90
4324;DHT22;2175;51.018;6.994;2023-03-23T13:31:38;14.10;99.90
4324;DHT22;2175;51.018;6.994;2023-03-23T13:34:30;14.00;99.90
4324;DHT22;2175;51.018;6.994;2023-03-23T13:36:56;14.00;99.90
4324;DHT22;2175;51.018;6.994;2023-03-23T13:45:05;13.90;99.90
4324;DHT22;2175;51.018;6.994;2023-03-23T13:47:41;14.10;99.90
4324;DHT22;2175;51.018;6.994;2023-03-23T13:52:52;14.30;99.90
4324;DHT22;2175;51.018;6.994;2023-03-23T13:57:55;14.10;99.90
4324;DHT22;2175;51.018;6.994;2023-03-23T14:02:51;13.80;99.90
4324;DHT22;2175;51.018;6.994;2023-03-23T14:07:57;13.80;99.90
4324;DHT22;2175;51.018;6.994;2023-03-23T14:11:00;14.00;99.90
4324;DHT22;2175;51.018;6.994;2023-03-23T14:13:31;14.20;99.90
4324;DHT22;2175;51.018;6.994;2023-03-23T14:18:34;14.50;99.90
4324;DHT22;2175;51.018;6.994;2023-03-23T14:21:00;14.30;99.90
4324;DHT22;2175;51.018;6.994;2023-03-23T14:23:27;14.40;99.90
4324;DHT22;2175;51.018;6.994;2023-03-23T14:26:10;14.50;99.90
4324;DHT22;2175;51.018;6.994;2023-03-23T14:28:38;14.50;99.90
4324;DHT22;2175;51.018;6.994;2023-03-23T14:31:05;14.60;99.90
4324;DHT22;2175;51.018;6.994;2023-03-23T14:33:38;14.70;99.90
4324;DHT22;2175;51.018;6.994;2023-03-23T14:36:06;14.70;99.90
4324;DHT22;2175;51.018;6.994;2023-03-23T14:38:33;14.60;99.90
4324;DHT22;2175;51.018;6.994;2023-03-23T14:41:03;14.60;99.90
4324;DHT22;2175;51.018;6.994;2023-03-23T14:43:59;14.60;99.90
4324;DHT22;2175;51.018;6.994;2023-03-23T14:46:25;14.60;99.90
4324;DHT22;2175;51.018;6.994;2023-03-23T14:48:52;14.40;99.90
4324;DHT22;2175;51.018;6.994;2023-03-23T14:51:20;14.40;99.90
4324;DHT22;2175;51.018;6.994;2023-03-23T14:53:46;14.40;99.90
4324;DHT22;2175;51.018;6.994;2023-03-23T14:56:16;14.50;99.90
4324;DHT22;2175;51.018;6.994;2023-03-23T14:58:47;14.60;99.90
4324;DHT22;2175;51.018;6.994;2023-03-23T15:01:33;14.40;99.90
4324;DHT22;2175;51.018;6.994;2023-03-23T15:04:03;14.30;99.90
4324;DHT22;2175;51.018;6.994;2023-03-23T15:06:33;14.10;99.90
4324;DHT22;2175;51.018;6.994;2023-03-23T15:09:07;13.90;99.90
4324;DHT22;2175;51.018;6.994;2023-03-23T15:11:36;13.80;99.90
4324;DHT22;2175;51.018;6.994;2023-03-23T15:14:21;13.80;99.90
4324;DHT22;2175;51.018;6.994;2023-03-23T15:16:53;13.90;99.90
4324;DHT22;2175;51.018;6.994;2023-03-23T15:19:36;13.80;99.90
4324;DHT22;2175;51.018;6.994;2023-03-23T15:22:27;13.80;99.90
4324;DHT22;2175;51.018;6.994;2023-03-23T15:27:41;14.10;99.90
4324;DHT22;2175;51.018;6.994;2023-03-23T15:33:00;14.60;99.90
4324;DHT22;2175;51.018;6.994;2023-03-23T15:35:26;14.70;99.90
4324;DHT22;2175;51.018;6.994;2023-03-23T15:37:57;14.90;99.90
4324;DHT22;2175;51.018;6.994;2023-03-23T15:40:24;14.80;99.90
4324;DHT22;2175;51.018;6.994;2023-03-23T15:51:28;15.00;89.50
4324;DHT22;2175;51.018;6.994;2023-03-23T15:53:55;15.00;67.10
4324;DHT22;2175;51.018;6.994;2023-03-23T15:56:22;14.90;64.20
4324;DHT22;2175;51.018;6.994;2023-03-23T15:58:48;14.80;95.30
4324;DHT22;2175;51.018;6.994;2023-03-23T16:01:17;14.90;73.60
4324;DHT22;2175;51.018;6.994;2023-03-23T16:03:54;14.90;45.40
4324;DHT22;2175;51.018;6.994;2023-03-23T16:06:23;15.00;60.10
4324;DHT22;2175;51.018;6.994;2023-03-23T16:08:50;15.20;49.90
4324;DHT22;2175;51.018;6.994;2023-03-23T16:11:17;15.20;36.30
4324;DHT22;2175;51.018;6.994;2023-03-23T16:13:44;15.20;15.40
4324;DHT22;2175;51.018;6.994;2023-03-23T16:16:14;15.20;9.70
4324;DHT22;2175;51.018;6.994;2023-03-23T16:18:41;15.10;19.70
4324;DHT22;2175;51.018;6.994;2023-03-23T16:21:07;15.00;4.40
4324;DHT22;2175;51.018;6.994;2023-03-23T16:23:32;14.90;18.90
4324;DHT22;2175;51.018;6.994;2023-03-23T16:25:58;14.80;25.10
4324;DHT22;2175;51.018;6.994;2023-03-23T16:28:24;14.80;9.60
4324;DHT22;2175;51.018;6.994;2023-03-23T16:30:50;14.70;26.70
4324;DHT22;2175;51.018;6.994;2023-03-23T16:33:15;14.70;5.80
4324;DHT22;2175;51.018;6.994;2023-03-23T16:35:41;14.70;12.20
4324;DHT22;2175;51.018;6.994;2023-03-23T16:38:12;14.70;19.10
4324;DHT22;2175;51.018;6.994;2023-03-23T16:40:38;14.80;22.80
4324;DHT22;2175;51.018;6.994;2023-03-23T16:43:04;14.70;15.80
4324;DHT22;2175;51.018;6.994;2023-03-23T16:45:30;14.60;18.00
4324;DHT22;2175;51.018;6.994;2023-03-23T16:47:56;14.60;1.00
4324;DHT22;2175;51.018;6.994;2023-03-23T16:50:27;14.50;1.00
4324;DHT22;2175;51.018;6.994;2023-03-23T16:52:54;14.60;1.00
4324;DHT22;2175;51.018;6.994;2023-03-23T16:55:20;14.50;1.00
4324;DHT22;2175;51.018;6.994;2023-03-23T16:57:46;14.50;1.00
4324;DHT22;2175;51.018;6.994;2023-03-23T17:00:16;14.60;1.00
4324;DHT22;2175;51.018;6.994;2023-03-23T17:02:48;14.70;1.90
4324;DHT22;2175;51.018;6.994;2023-03-23T17:05:17;14.60;1.00
4324;DHT22;2175;51.018;6.994;2023-03-23T17:07:44;14.70;1.00
4324;DHT22;2175;51.018;6.994;2023-03-23T17:10:13;14.70;1.00
4324;DHT22;2175;51.018;6.994;2023-03-23T17:12:39;14.70;1.00
4324;DHT22;2175;51.018;6.994;2023-03-23T17:15:06;14.70;1.00
4324;DHT22;2175;51.018;6.994;2023-03-23T17:17:33;14.60;1.00
4324;DHT22;2175;51.018;6.994;2023-03-23T17:19:59;14.60;1.00
4324;DHT22;2175;51.018;6.994;2023-03-23T17:22:25;14.60;1.00
4324;DHT22;2175;51.018;6.994;2023-03-23T17:24:50;14.60;1.00
4324;DHT22;2175;51.018;6.994;2023-03-23T17:27:18;14.50;1.00
4324;DHT22;2175;51.018;6.994;2023-03-23T17:29:44;14.40;1.00
4324;DHT22;2175;51.018;6.994;2023-03-23T17:32:10;14.40;1.00
4324;DHT22;2175;51.018;6.994;2023-03-23T17:34:36;14.40;1.00
4324;DHT22;2175;51.018;6.994;2023-03-23T17:37:03;14.30;1.00
4324;DHT22;2175;51.018;6.994;2023-03-23T17:39:30;14.30;1.00
4324;DHT22;2175;51.018;6.994;2023-03-23T17:41:56;14.30;1.00
4324;DHT22;2175;51.018;6.994;2023-03-23T17:44:22;14.10;1.00
4324;DHT22;2175;51.018;6.994;2023-03-23T17:46:48;14.10;1.00
4324;DHT22;2175;51.018;6.994;2023-03-23T17:49:14;14.10;1.00
4324;DHT22;2175;51.018;6.994;2023-03-23T17:51:40;14.00;1.00
4324;DHT22;2175;51.018;6.994;2023-03-23T17:54:06;14.00;1.00
4324;DHT22;2175;51.018;6.994;2023-03-23T17:56:31;14.00;1.00
4324;DHT22;2175;51.018;6.994;2023-03-23T17:58:57;13.90;1.00
4324;DHT22;2175;51.018;6.994;2023-03-23T18:01:22;13.80;1.00
4324;DHT22;2175;51.018;6.994;2023-03-23T18:03:48;13.90;1.00
4324;DHT22;2175;51.018;6.994;2023-03-23T18:06:14;13.90;1.00
4324;DHT22;2175;51.018;6.994;2023-03-23T18:08:40;13.80;1.00
4324;DHT22;2175;51.018;6.994;2023-03-23T18:11:06;13.80;1.00
4324;DHT22;2175;51.018;6.994;2023-03-23T18:13:33;13.70;1.00
4324;DHT22;2175;51.018;6.994;2023-03-23T18:15:59;13.90;1.00
4324;DHT22;2175;51.018;6.994;2023-03-23T18:18:25;13.90;1.00
4324;DHT22;2175;51.018;6.994;2023-03-23T18:21:05;13.80;1.00
4324;DHT22;2175;51.018;6.994;2023-03-23T18:23:32;13.80;1.00
4324;DHT22;2175;51.018;6.994;2023-03-23T18:26:01;13.80;1.00